createdAt,value
2019-05-12T00:00:08.827Z,11.50
2019-05-12T00:02:39.583Z,11.50
2019-05-12T00:05:08.879Z,11.50
2019-05-12T00:07:38.173Z,11.50
2019-05-12T00:10:08.668Z,11.50
2019-05-12T00:12:38.423Z,11.50
2019-05-12T00:15:08.736Z,11.50
2019-05-12T00:17:38.799Z,11.50
2019-05-12T00:20:08.823Z,11.60
2019-05-12T00:22:45.083Z,11.60
2019-05-12T00:25:13.684Z,11.50
2019-05-12T00:27:42.199Z,11.60
2019-05-12T00:30:12.530Z,11.60
2019-05-12T00:32:40.998Z,11.70
2019-05-12T00:35:09.647Z,11.70
2019-05-12T00:37:38.364Z,11.70
2019-05-12T00:40:08.844Z,11.70
2019-05-12T00:42:38.135Z,11.70
2019-05-12T00:45:08.152Z,11.70
2019-05-12T00:47:38.913Z,11.70
2019-05-12T00:50:08.138Z,11.80
2019-05-12T00:52:38.562Z,11.80
2019-05-12T00:55:07.937Z,11.80
2019-05-12T00:57:38.558Z,11.70
2019-05-12T01:00:10.342Z,11.70
2019-05-12T01:02:38.805Z,11.80
2019-05-12T01:05:08.975Z,11.80
2019-05-12T01:07:38.251Z,11.70
2019-05-12T01:10:08.902Z,11.70
2019-05-12T01:12:38.224Z,11.70
2019-05-12T01:15:08.915Z,11.70
2019-05-12T01:17:40.065Z,11.70
2019-05-12T01:20:08.862Z,11.70
2019-05-12T01:22:38.217Z,11.70
2019-05-12T01:25:08.667Z,11.70
2019-05-12T01:27:38.109Z,11.70
2019-05-12T01:30:08.722Z,11.70
2019-05-12T01:32:40.852Z,11.60
2019-05-12T01:35:10.214Z,11.60
2019-05-12T01:37:38.843Z,11.60
2019-05-12T01:40:08.968Z,11.60
2019-05-12T01:42:38.349Z,11.60
2019-05-12T01:45:09.378Z,11.60
2019-05-12T01:47:38.361Z,11.60
2019-05-12T01:50:09.009Z,11.50
2019-05-12T01:52:38.669Z,11.50
2019-05-12T01:55:08.328Z,11.50
2019-05-12T01:57:38.559Z,11.50
2019-05-12T02:00:15.232Z,11.50
2019-05-12T02:02:43.772Z,11.50
2019-05-12T02:05:13.093Z,11.50
2019-05-12T02:07:52.018Z,11.50
2019-05-12T02:10:21.121Z,11.50
2019-05-12T02:12:49.640Z,11.30
2019-05-12T02:15:18.832Z,11.10
2019-05-12T02:17:48.151Z,11.00
2019-05-12T02:20:18.126Z,10.80
2019-05-12T02:22:47.748Z,10.70
2019-05-12T02:25:18.427Z,10.60
2019-05-12T02:27:47.672Z,10.50
2019-05-12T02:30:20.297Z,10.40
2019-05-12T02:32:53.051Z,10.30
2019-05-12T02:35:17.758Z,10.30
2019-05-12T02:37:46.336Z,10.20
2019-05-12T02:40:16.404Z,10.10
2019-05-12T02:42:46.384Z,10.10
2019-05-12T02:45:15.629Z,10.10
2019-05-12T02:47:45.746Z,10.00
2019-05-12T02:50:17.549Z,9.90
2019-05-12T02:52:46.637Z,9.90
2019-05-12T02:55:15.303Z,9.90
2019-05-12T02:57:45.304Z,9.80
2019-05-12T03:00:15.970Z,9.80
2019-05-12T03:02:47.025Z,9.90
2019-05-12T03:05:15.476Z,9.80
2019-05-12T03:07:46.466Z,9.70
2019-05-12T03:10:15.073Z,9.70
2019-05-12T03:12:44.885Z,9.70
2019-05-12T03:15:15.239Z,9.60
2019-05-12T03:17:44.403Z,9.50
2019-05-12T03:20:15.408Z,9.60
2019-05-12T03:22:44.794Z,9.60
2019-05-12T03:25:20.878Z,9.60
2019-05-12T03:27:44.536Z,9.70
2019-05-12T03:30:18.986Z,9.60
2019-05-12T03:32:47.196Z,9.60
2019-05-12T03:35:17.433Z,9.60
2019-05-12T03:37:45.209Z,9.50
2019-05-12T03:40:14.572Z,9.60
2019-05-12T03:42:44.490Z,9.60
2019-05-12T03:45:14.972Z,9.60
2019-05-12T03:47:45.607Z,9.60
2019-05-12T03:50:14.912Z,9.60
2019-05-12T03:52:44.919Z,9.60
2019-05-12T03:55:31.000Z,9.50
2019-05-12T03:57:44.989Z,9.60
2019-05-12T04:00:15.837Z,9.60
2019-05-12T04:02:45.404Z,9.50
2019-05-12T04:05:15.631Z,9.60
2019-05-12T04:07:45.140Z,9.60
2019-05-12T04:10:15.677Z,9.60
2019-05-12T04:12:45.039Z,9.70
2019-05-12T04:15:15.169Z,9.80
2019-05-12T04:17:45.583Z,9.80
2019-05-12T04:20:15.219Z,9.70
2019-05-12T04:22:44.807Z,9.70
2019-05-12T04:25:14.542Z,9.60
2019-05-12T04:27:45.063Z,9.70
2019-05-12T04:30:14.587Z,9.70
2019-05-12T04:32:45.054Z,9.60
2019-05-12T04:35:14.876Z,9.60
2019-05-12T04:37:44.901Z,9.50
2019-05-12T04:40:15.094Z,9.60
2019-05-12T04:42:45.158Z,9.60
2019-05-12T04:45:15.764Z,9.60
2019-05-12T04:47:45.082Z,9.60
2019-05-12T04:50:15.635Z,9.60
2019-05-12T04:52:44.785Z,9.70
2019-05-12T04:55:15.080Z,9.80
2019-05-12T04:57:45.000Z,9.80
2019-05-12T05:00:15.728Z,9.80
2019-05-12T05:02:45.457Z,9.90
2019-05-12T05:05:14.725Z,10.00
2019-05-12T05:07:44.701Z,10.00
2019-05-12T05:10:14.610Z,10.00
2019-05-12T05:12:45.017Z,10.10
2019-05-12T05:15:14.741Z,10.10
2019-05-12T05:17:44.256Z,10.20
2019-05-12T05:20:13.541Z,10.20
2019-05-12T05:22:44.050Z,10.30
2019-05-12T05:25:14.444Z,10.30
2019-05-12T05:27:44.382Z,10.30
2019-05-12T05:30:13.847Z,10.40
2019-05-12T05:32:44.442Z,10.40
2019-05-12T05:35:13.703Z,10.40
2019-05-12T05:37:44.168Z,10.40
2019-05-12T05:40:14.186Z,10.40
2019-05-12T05:42:43.952Z,10.40
2019-05-12T05:45:19.651Z,10.50
2019-05-12T05:47:44.345Z,10.60
2019-05-12T05:50:13.659Z,10.70
2019-05-12T05:52:43.789Z,10.60
2019-05-12T05:55:19.854Z,10.50
2019-05-12T05:57:44.388Z,10.60
2019-05-12T06:00:22.828Z,10.50
2019-05-12T06:02:44.336Z,10.50
2019-05-12T06:05:14.469Z,10.60
2019-05-12T06:07:44.333Z,10.50
2019-05-12T06:10:14.478Z,10.70
2019-05-12T06:12:48.714Z,10.70
2019-05-12T06:15:13.695Z,10.70
2019-05-12T06:17:43.909Z,10.60
2019-05-12T06:20:13.556Z,10.70
2019-05-12T06:22:43.798Z,10.70
2019-05-12T06:25:16.235Z,10.70
2019-05-12T06:27:44.341Z,10.80
2019-05-12T06:30:14.823Z,10.80
2019-05-12T06:32:49.722Z,10.90
2019-05-12T06:35:15.072Z,10.90
2019-05-12T06:37:44.349Z,10.90
2019-05-12T06:40:14.014Z,10.90
2019-05-12T06:42:43.575Z,10.90
2019-05-12T06:45:14.171Z,10.90
2019-05-12T06:47:47.436Z,10.90
2019-05-12T06:50:14.551Z,10.90
2019-05-12T06:52:48.740Z,11.00
2019-05-12T06:55:14.711Z,11.00
2019-05-12T06:57:45.920Z,11.00
2019-05-12T07:00:14.597Z,11.00
2019-05-12T07:02:51.679Z,11.10
2019-05-12T07:05:14.605Z,11.10
2019-05-12T07:07:45.995Z,11.10
2019-05-12T07:10:34.310Z,11.10
2019-05-12T07:12:57.647Z,11.10
2019-05-12T07:15:14.677Z,11.20
2019-05-12T07:17:49.561Z,11.20
2019-05-12T07:20:15.735Z,11.20
2019-05-12T07:22:48.326Z,11.10
2019-05-12T07:25:14.435Z,11.20
2019-05-12T07:27:47.376Z,11.00
2019-05-12T07:30:13.782Z,11.10
2019-05-12T07:32:43.679Z,11.10
2019-05-12T07:35:14.629Z,11.10
2019-05-12T07:37:43.674Z,11.10
2019-05-12T07:40:13.777Z,11.10
2019-05-12T07:42:43.869Z,11.20
2019-05-12T07:45:20.688Z,11.30
2019-05-12T07:47:44.938Z,11.30
2019-05-12T07:50:16.130Z,11.30
2019-05-12T07:52:44.747Z,11.20
2019-05-12T07:55:14.816Z,11.30
2019-05-12T07:57:52.868Z,11.20
2019-05-12T08:00:21.082Z,11.30
2019-05-12T08:02:45.269Z,11.40
2019-05-12T08:05:19.861Z,11.30
2019-05-12T08:07:45.611Z,11.30
2019-05-12T08:10:19.883Z,11.20
2019-05-12T08:12:44.658Z,11.20
2019-05-12T08:15:14.081Z,11.20
2019-05-12T08:17:44.078Z,11.30
2019-05-12T08:20:13.504Z,11.20
2019-05-12T08:22:43.762Z,11.20
2019-05-12T08:25:13.458Z,11.30
2019-05-12T08:27:45.320Z,11.30
2019-05-12T08:30:13.877Z,11.20
2019-05-12T08:32:44.315Z,11.30
2019-05-12T08:35:13.922Z,11.40
2019-05-12T08:37:44.152Z,11.50
2019-05-12T08:40:15.563Z,11.50
2019-05-12T08:42:43.881Z,11.50
2019-05-12T08:45:15.204Z,11.60
2019-05-12T08:47:44.095Z,11.50
2019-05-12T08:50:13.849Z,11.70
2019-05-12T08:52:44.272Z,11.60
2019-05-12T08:55:16.378Z,11.70
2019-05-12T08:57:49.461Z,11.60
2019-05-12T09:00:13.746Z,11.40
2019-05-12T09:02:48.783Z,11.40
2019-05-12T09:05:14.261Z,11.40
2019-05-12T09:07:43.637Z,11.40
2019-05-12T09:10:14.331Z,11.40
2019-05-12T09:12:44.141Z,11.40
2019-05-12T09:15:13.581Z,11.40
2019-05-12T09:17:49.513Z,11.40
2019-05-12T09:20:13.792Z,11.40
2019-05-12T09:22:43.262Z,11.50
2019-05-12T09:25:14.148Z,11.50
2019-05-12T09:27:47.596Z,11.40
2019-05-12T09:30:14.213Z,11.40
2019-05-12T09:32:45.365Z,11.40
2019-05-12T09:35:14.419Z,11.40
2019-05-12T09:37:44.136Z,11.30
2019-05-12T09:40:14.908Z,11.30
2019-05-12T09:42:44.097Z,11.30
2019-05-12T09:45:13.791Z,11.30
2019-05-12T09:47:43.618Z,11.30
2019-05-12T09:50:18.221Z,11.30
2019-05-12T09:52:44.064Z,11.30
2019-05-12T09:55:14.790Z,11.30
2019-05-12T09:57:45.078Z,11.30
2019-05-12T10:00:14.086Z,11.30
2019-05-12T10:02:43.597Z,11.30
2019-05-12T10:05:14.438Z,11.30
2019-05-12T10:07:44.479Z,11.30
2019-05-12T10:10:15.003Z,11.30
2019-05-12T10:12:46.192Z,11.30
2019-05-12T10:15:18.854Z,11.40
2019-05-12T10:17:44.163Z,11.40
2019-05-12T10:20:13.717Z,11.40
2019-05-12T10:22:43.749Z,11.40
2019-05-12T10:25:14.539Z,11.30
2019-05-12T10:27:44.279Z,11.30
2019-05-12T10:30:17.060Z,11.20
2019-05-12T10:32:43.706Z,11.20
2019-05-12T10:35:21.085Z,11.20
2019-05-12T10:37:47.154Z,11.30
2019-05-12T10:40:14.944Z,11.20
2019-05-12T10:42:46.101Z,11.10
2019-05-12T10:45:16.998Z,11.10
2019-05-12T10:47:44.407Z,11.00
2019-05-12T10:50:14.533Z,11.00
2019-05-12T10:52:43.997Z,10.90
2019-05-12T10:55:13.450Z,10.80
2019-05-12T10:57:43.922Z,10.80
2019-05-12T11:00:19.626Z,10.70
2019-05-12T11:02:45.030Z,10.60
2019-05-12T11:05:21.285Z,10.50
2019-05-12T11:07:44.745Z,10.40
2019-05-12T11:10:19.624Z,10.40
2019-05-12T11:12:44.291Z,10.40
2019-05-12T11:15:13.618Z,10.30
2019-05-12T11:17:50.199Z,10.20
2019-05-12T11:20:18.675Z,10.20
2019-05-12T11:22:47.192Z,10.20
2019-05-12T11:25:15.844Z,10.00
2019-05-12T11:27:44.680Z,10.00
2019-05-12T11:30:14.067Z,9.90
2019-05-12T11:32:44.201Z,9.80
2019-05-12T11:35:14.245Z,9.90
2019-05-12T11:37:42.994Z,9.80
2019-05-12T11:40:13.129Z,9.80
2019-05-12T11:42:48.412Z,9.80
2019-05-12T11:45:13.624Z,9.80
2019-05-12T11:47:42.226Z,9.90
2019-05-12T11:50:13.077Z,9.90
2019-05-12T11:52:41.270Z,9.90
2019-05-12T11:55:10.075Z,10.00
2019-05-12T11:57:38.522Z,10.00
2019-05-12T12:00:09.503Z,10.10
2019-05-12T12:02:38.014Z,10.10
2019-05-12T12:05:07.375Z,10.10
2019-05-12T12:07:39.360Z,10.10
2019-05-12T12:10:06.781Z,10.10
2019-05-12T12:12:39.509Z,10.10
2019-05-12T12:15:06.236Z,10.00
2019-05-12T12:17:35.716Z,10.10
2019-05-12T12:20:05.963Z,10.10
2019-05-12T12:22:36.068Z,10.10
2019-05-12T12:25:10.884Z,10.20
2019-05-12T12:27:35.715Z,10.30
2019-05-12T12:30:16.037Z,10.30
2019-05-12T12:32:36.548Z,10.20
2019-05-12T12:35:10.981Z,10.20
2019-05-12T12:37:36.786Z,10.20
2019-05-12T12:40:06.004Z,10.20
2019-05-12T12:42:37.005Z,10.10
2019-05-12T12:45:23.805Z,10.10
2019-05-12T12:47:54.061Z,10.00
2019-05-12T12:50:26.308Z,9.90
2019-05-12T12:52:53.421Z,9.90
2019-05-12T12:55:23.450Z,9.90
2019-05-12T12:57:52.195Z,9.90
2019-05-12T13:00:30.757Z,10.00
2019-05-12T13:02:51.751Z,10.10
2019-05-12T13:05:20.204Z,10.10
2019-05-12T13:07:48.741Z,10.20
2019-05-12T13:10:17.940Z,10.20
2019-05-12T13:12:50.371Z,10.30
2019-05-12T13:15:17.049Z,10.40
2019-05-12T13:17:45.522Z,10.40
2019-05-12T13:20:14.682Z,10.50
2019-05-12T13:22:44.408Z,10.60
2019-05-12T13:25:14.235Z,10.70
2019-05-12T13:27:42.971Z,10.90
2019-05-12T13:30:19.566Z,11.00
2019-05-12T13:32:44.138Z,11.00
2019-05-12T13:35:16.527Z,10.90
2019-05-12T13:37:43.331Z,10.90
2019-05-12T13:40:12.520Z,11.10
2019-05-12T13:42:41.059Z,11.20
2019-05-12T13:45:13.193Z,11.30
2019-05-12T13:47:40.599Z,11.40
2019-05-12T13:50:13.249Z,11.40
2019-05-12T13:52:40.083Z,11.40
2019-05-12T13:55:08.672Z,11.60
2019-05-12T13:57:37.139Z,11.80
2019-05-12T14:00:10.712Z,11.70
2019-05-12T14:02:37.783Z,11.70
2019-05-12T14:05:11.634Z,11.80
2019-05-12T14:07:37.520Z,11.70
2019-05-12T14:10:07.967Z,11.60
2019-05-12T14:12:36.411Z,11.60
2019-05-12T14:15:07.016Z,11.60
2019-05-12T14:17:37.285Z,11.80
2019-05-12T14:20:09.212Z,11.60
2019-05-12T14:22:37.998Z,11.70
2019-05-12T14:25:06.694Z,11.70
2019-05-12T14:27:35.155Z,11.70
2019-05-12T14:30:09.850Z,11.80
2019-05-12T14:32:34.695Z,12.00
2019-05-12T14:35:04.311Z,12.30
2019-05-12T14:37:33.597Z,12.30
2019-05-12T14:40:03.978Z,12.00
2019-05-12T14:42:39.385Z,12.10
2019-05-12T14:45:04.718Z,11.90
2019-05-12T14:47:33.992Z,11.90
2019-05-12T14:50:03.942Z,11.90
2019-05-12T14:52:33.383Z,11.90
2019-05-12T14:55:03.439Z,11.70
2019-05-12T14:57:35.364Z,11.60
2019-05-12T15:00:04.005Z,11.60
2019-05-12T15:02:33.163Z,11.50
2019-05-12T15:05:06.415Z,11.60
2019-05-12T15:07:32.112Z,11.60
2019-05-12T15:10:02.470Z,11.50
2019-05-12T15:12:30.779Z,11.40
2019-05-12T15:14:59.265Z,11.20
2019-05-12T15:17:27.775Z,11.20
2019-05-12T15:20:00.214Z,11.10
2019-05-12T15:22:26.789Z,11.10
2019-05-12T15:24:58.811Z,11.00
2019-05-12T15:27:41.298Z,10.90
2019-05-12T15:29:59.441Z,10.90
2019-05-12T15:32:25.960Z,10.80
2019-05-12T15:34:54.502Z,10.80
2019-05-12T15:37:23.839Z,10.70
2019-05-12T15:39:53.458Z,10.60
2019-05-12T15:42:23.566Z,10.60
2019-05-12T15:44:53.731Z,10.60
2019-05-12T15:47:27.078Z,10.60
2019-05-12T15:49:53.157Z,10.60
2019-05-12T15:52:24.276Z,10.50
2019-05-12T15:54:53.996Z,10.50
2019-05-12T15:57:24.443Z,10.40
2019-05-12T15:59:54.122Z,10.40
2019-05-12T16:02:23.499Z,10.40
2019-05-12T16:04:54.810Z,10.30
2019-05-12T16:07:24.149Z,10.40
2019-05-12T16:09:54.646Z,10.30
2019-05-12T16:12:26.103Z,10.20
2019-05-12T16:14:53.987Z,10.10
2019-05-12T16:17:25.009Z,10.00
2019-05-12T16:19:54.143Z,10.00
2019-05-12T16:22:23.238Z,9.90
2019-05-12T16:24:53.241Z,9.90
2019-05-12T16:27:27.284Z,9.80
2019-05-12T16:29:53.488Z,9.60
2019-05-12T16:32:26.856Z,9.50
2019-05-12T16:34:54.127Z,9.40
2019-05-12T16:37:30.941Z,9.40
2019-05-12T16:39:54.013Z,9.30
2019-05-12T16:42:23.594Z,9.20
2019-05-12T16:44:56.121Z,9.20
2019-05-12T16:47:27.323Z,9.20
2019-05-12T16:49:53.407Z,9.20
2019-05-12T16:52:24.246Z,9.00
2019-05-12T16:54:54.045Z,9.00
2019-05-12T16:57:22.411Z,9.00
2019-05-12T16:59:55.950Z,9.00
2019-05-12T17:02:23.352Z,9.00
2019-05-12T17:04:51.203Z,8.90
2019-05-12T17:07:20.932Z,8.90
2019-05-12T17:09:49.695Z,8.80
2019-05-12T17:12:18.181Z,8.80
2019-05-12T17:14:50.016Z,8.80
2019-05-12T17:17:16.811Z,8.90
2019-05-12T17:19:45.267Z,8.80
2019-05-12T17:22:13.784Z,8.80
2019-05-12T17:24:44.731Z,8.80
2019-05-12T17:27:15.710Z,8.80
2019-05-12T17:29:43.488Z,8.80
2019-05-12T17:32:13.452Z,8.80
2019-05-12T17:34:45.832Z,8.70
2019-05-12T17:37:14.566Z,8.70
2019-05-12T17:39:43.828Z,8.80
2019-05-12T17:42:21.216Z,8.80
2019-05-12T17:44:43.595Z,8.80
2019-05-12T17:47:20.695Z,8.80
2019-05-12T17:49:43.598Z,8.90
2019-05-12T17:52:18.043Z,8.90
2019-05-12T17:54:43.431Z,8.90
2019-05-12T17:57:15.729Z,8.90
2019-05-12T17:59:44.652Z,8.80
2019-05-12T18:02:16.659Z,8.80
2019-05-12T18:04:43.740Z,8.80
2019-05-12T18:07:18.542Z,8.80
2019-05-12T18:09:44.195Z,8.80
2019-05-12T18:12:13.933Z,8.80
2019-05-12T18:14:46.797Z,8.70
2019-05-12T18:17:14.266Z,8.70
2019-05-12T18:19:44.391Z,8.80
2019-05-12T18:22:14.135Z,8.80
2019-05-12T18:24:49.412Z,8.80
2019-05-12T18:27:13.647Z,8.80
2019-05-12T18:29:44.111Z,8.80
2019-05-12T18:32:13.828Z,8.80
2019-05-12T18:34:44.506Z,8.80
2019-05-12T18:37:13.610Z,8.80
2019-05-12T18:39:43.710Z,8.80
2019-05-12T18:42:13.957Z,8.90
2019-05-12T18:44:43.939Z,8.90
2019-05-12T18:47:16.359Z,8.90
2019-05-12T18:49:47.902Z,9.00
2019-05-12T18:52:14.704Z,8.90
2019-05-12T18:54:52.073Z,9.00
2019-05-12T18:57:13.392Z,9.00
2019-05-12T18:59:48.419Z,9.00
2019-05-12T19:02:14.620Z,9.00
2019-05-12T19:04:44.315Z,9.00
2019-05-12T19:07:39.763Z,9.10
2019-05-12T19:10:03.756Z,9.10
2019-05-12T19:12:35.397Z,9.10
2019-05-12T19:15:04.695Z,9.10
2019-05-12T19:17:32.843Z,9.00
2019-05-12T19:20:01.591Z,9.00
2019-05-12T19:22:30.228Z,9.00
2019-05-12T19:25:00.063Z,9.00
2019-05-12T19:27:28.696Z,9.00
2019-05-12T19:29:57.291Z,9.00
2019-05-12T19:32:27.863Z,9.00
2019-05-12T19:34:56.150Z,8.90
2019-05-12T19:37:26.533Z,9.00
2019-05-12T19:39:54.870Z,8.90
2019-05-12T19:42:24.479Z,8.80
2019-05-12T19:44:56.659Z,8.70
2019-05-12T19:47:33.494Z,8.70
2019-05-12T19:49:53.762Z,8.60
2019-05-12T19:52:24.242Z,8.60
2019-05-12T19:54:52.430Z,8.50
2019-05-12T19:57:21.884Z,8.50
2019-05-12T19:59:52.683Z,8.40
2019-05-12T20:02:23.589Z,8.30
2019-05-12T20:04:53.425Z,8.30
2019-05-12T20:07:23.361Z,8.20
2019-05-12T20:09:55.912Z,8.30
2019-05-12T20:12:24.109Z,8.30
2019-05-12T20:14:56.874Z,8.20
2019-05-12T20:17:24.304Z,8.10
2019-05-12T20:19:53.952Z,8.10
2019-05-12T20:22:24.380Z,8.10
2019-05-12T20:24:53.664Z,8.10
2019-05-12T20:27:24.586Z,8.00
2019-05-12T20:29:53.971Z,8.00
2019-05-12T20:32:24.116Z,8.00
2019-05-12T20:34:55.255Z,8.00
2019-05-12T20:37:22.951Z,8.00
2019-05-12T20:40:00.049Z,8.00
2019-05-12T20:42:23.709Z,8.00
2019-05-12T20:44:57.729Z,7.90
2019-05-12T20:47:23.415Z,7.90
2019-05-12T20:49:52.864Z,8.00
2019-05-12T20:52:23.611Z,8.00
2019-05-12T20:54:57.733Z,7.90
2019-05-12T20:57:23.632Z,8.00
2019-05-12T20:59:52.379Z,8.00
2019-05-12T21:02:23.186Z,8.00
2019-05-12T21:05:00.635Z,8.10
2019-05-12T21:07:22.281Z,8.10
2019-05-12T21:09:51.439Z,8.20
2019-05-12T21:12:19.903Z,8.20
2019-05-12T21:14:51.295Z,8.20
2019-05-12T21:17:18.640Z,8.20
2019-05-12T21:19:55.805Z,8.30
2019-05-12T21:22:17.324Z,8.40
2019-05-12T21:24:45.793Z,8.40
2019-05-12T21:27:18.306Z,8.30
2019-05-12T21:29:44.581Z,8.40
2019-05-12T21:32:16.662Z,8.50
2019-05-12T21:34:43.749Z,8.40
2019-05-12T21:37:13.986Z,8.40
2019-05-12T21:39:46.858Z,8.50
2019-05-12T21:42:12.841Z,8.60
2019-05-12T21:44:46.787Z,8.60
2019-05-12T21:47:13.746Z,8.60
2019-05-12T21:49:42.584Z,8.60
2019-05-12T21:52:13.545Z,8.60
2019-05-12T21:54:43.955Z,8.70
2019-05-12T21:57:12.284Z,8.70
2019-05-12T21:59:40.729Z,8.70
2019-05-12T22:02:09.331Z,8.70
2019-05-12T22:04:41.338Z,8.70
2019-05-12T22:07:08.032Z,8.70
2019-05-12T22:09:41.865Z,8.70
2019-05-12T22:12:06.727Z,8.70
2019-05-12T22:14:38.672Z,8.70
2019-05-12T22:17:07.162Z,8.70
2019-05-12T22:19:38.109Z,8.80
2019-05-12T22:22:05.803Z,8.70
2019-05-12T22:24:38.660Z,8.80
2019-05-12T22:27:05.149Z,8.90
2019-05-12T22:29:34.347Z,8.90
2019-05-12T22:32:05.042Z,8.90
2019-05-12T22:34:37.059Z,8.90
2019-05-12T22:37:03.903Z,8.90
2019-05-12T22:39:33.842Z,8.80
2019-05-12T22:42:03.562Z,8.80
2019-05-12T22:44:34.555Z,8.80
2019-05-12T22:47:04.113Z,8.80
2019-05-12T22:49:33.886Z,8.80
2019-05-12T22:52:04.797Z,8.80
2019-05-12T22:54:33.696Z,8.90
2019-05-12T22:57:04.119Z,9.00
2019-05-12T22:59:40.336Z,9.00
2019-05-12T23:02:04.373Z,9.00
2019-05-12T23:04:35.482Z,9.00
2019-05-12T23:07:03.016Z,9.10
2019-05-12T23:09:33.750Z,9.00
2019-05-12T23:12:04.007Z,9.00
2019-05-12T23:14:33.947Z,9.10
2019-05-12T23:17:05.831Z,9.00
2019-05-12T23:19:34.028Z,9.00
2019-05-12T23:22:03.534Z,9.00
2019-05-12T23:24:37.012Z,9.00
2019-05-12T23:27:04.658Z,9.00
2019-05-12T23:29:33.821Z,9.10
2019-05-12T23:32:07.413Z,9.10
2019-05-12T23:34:33.828Z,9.10
2019-05-12T23:37:03.889Z,9.10
2019-05-12T23:39:38.102Z,9.20
2019-05-12T23:42:04.350Z,9.10
2019-05-12T23:44:33.462Z,9.10
2019-05-12T23:47:04.204Z,9.10
2019-05-12T23:49:33.652Z,9.10
2019-05-12T23:52:03.816Z,9.10
2019-05-12T23:54:34.426Z,9.10
2019-05-12T23:57:03.898Z,9.10
2019-05-12T23:59:33.445Z,9.10
